^^
Datos históricos de la estación: Murcia-Puente Tocinos
Diario Informe para Junio 20, 2019 Unidades:  Ingés    Métrico   Ambas
Diario Semanal Mensual Anual
  Máxima: Mínima: Promedio:
Temperatura: 77.2 °F 57.9 °F 67.1 °F
Punto de rocio: 59.5 °F 39.6 °F 49.6 °F
Humedad: 83% 29.3% 55%
Velocidad viento: 10.7mph 0mph 4.5mph
Racha viento: 22mph - -
Viento- - ESE
Presión: 29.9 in 29.8 in -
Precipitación: 0 in    
 
 
Tabla de datos para Junio 20, 2019
Hora Temperatura Punto de rocio Presión Viento Velocidad viento Racha viento Humedad Intensidad lluvia(por hora) Nubes
00:04 66 °F 39.7 °F 29.8 in NNO 2 mph 4.6 mph 38% 0 in
00:09 66 °F 39.7 °F 29.8 in NNO 1.9 mph 5 mph 38% 0 in
00:14 66 °F 40.3 °F 29.8 in ONO 1.8 mph 4.7 mph 39% 0 in
00:19 65.8 °F 40.8 °F 29.8 in Oeste 2.2 mph 5.2 mph 40% 0 in
00:24 65.7 °F 40.5 °F 29.8 in Oeste 2.9 mph 5 mph 39.7% 0 in
00:29 65.7 °F 40.3 °F 29.8 in Oeste 2.9 mph 4 mph 39.5% 0 in
00:34 65.8 °F 39.6 °F 29.8 in Oeste 2 mph 2.9 mph 38.1% 0 in
00:39 66.2 °F 39.7 °F 29.8 in Oeste 1.8 mph 3.5 mph 37.9% 0 in
00:44 66.6 °F 40.1 °F 29.8 in Oeste 1.8 mph 3.5 mph 38% 0 in
00:49 66.6 °F 40.6 °F 29.8 in Oeste 1.7 mph 2 mph 38.8% 0 in
00:54 66.6 °F 40.6 °F 29.8 in ONO 1.4 mph 4.3 mph 38.9% 0 in
00:59 66.2 °F 41.4 °F 29.8 in NO 1.4 mph 5 mph 40.4% 0 in
01:04 65.8 °F 41.5 °F 29.8 in NNO 1.8 mph 5 mph 41.2% 0 in
01:09 65.3 °F 41.4 °F 29.8 in NNO 1.8 mph 2.9 mph 41.5% 0 in
01:14 65.1 °F 41 °F 29.8 in NNO 1.8 mph 3 mph 41.5% 0 in
01:19 64.9 °F 40.8 °F 29.8 in NNO 1.1 mph   41.3% 0 in
01:24 64.9 °F 41.2 °F 29.8 in Calm   5.8 mph 42% 0 in
01:29 64.8 °F 41.2 °F 29.8 in ENE 0.7 mph 6 mph 42% 0 in
01:34 64.6 °F 41.4 °F 29.8 in ENE 1.8 mph 6 mph 42.7% 0 in
01:39 64.2 °F 41.4 °F 29.8 in NE 1.9 mph 5 mph 43.1% 0 in
01:44 64 °F 41.7 °F 29.8 in NE 2 mph 3.5 mph 44% 0 in
01:49 63.9 °F 41.5 °F 29.8 in NE 1.7 mph 3 mph 44% 0 in
01:54 63.9 °F 42.1 °F 29.8 in NE 1.4 mph   44.9% 0 in
01:59 63.9 °F 42.6 °F 29.8 in NE 0.8 mph   45.9% 0 in
02:04 63.9 °F 43.2 °F 29.8 in Calm   3.5 mph 47.2% 0 in
02:09 63.7 °F 43.7 °F 29.8 in NE 0.5 mph 3 mph 48.3% 0 in
02:14 63.7 °F 44.2 °F 29.8 in NE 1.4 mph 3.6 mph 49.2% 0 in
02:19 63.7 °F 44.6 °F 29.8 in NE 1.4 mph 4 mph 50% 0 in
02:24 63.3 °F 44.4 °F 29.8 in NE 1.4 mph 4 mph 50% 0 in
02:29 63.3 °F 45.7 °F 29.8 in NE 0.9 mph 2.4 mph 52.5% 0 in
02:34 63.1 °F 47.3 °F 29.8 in Calm   3.5 mph 56.1% 0 in
02:39 63.1 °F 48.9 °F 29.8 in NE 0.7 mph 3.5 mph 59.6% 0 in
02:44 63.1 °F 48.2 °F 29.8 in NE 1.8 mph 3.1 mph 58.4% 0 in
02:49 63 °F 46.4 °F 29.8 in NE 1.7 mph 3.5 mph 54.8% 0 in
02:54 62.6 °F 45.5 °F 29.8 in NE 1.4 mph 3.1 mph 53.7% 0 in
02:59 62.2 °F 45.1 °F 29.8 in NE 1.6 mph 3.5 mph 53.2% 0 in
03:04 62.2 °F 45 °F 29.8 in NE 2 mph 3.5 mph 53% 0 in
03:09 62.2 °F 46 °F 29.8 in NE 1.9 mph 3.5 mph 55.6% 0 in
03:14 62.2 °F 46 °F 29.8 in NE 1.8 mph 3.5 mph 55.4% 0 in
03:19 62.1 °F 43.9 °F 29.8 in NE 1.9 mph 4.6 mph 51.3% 0 in
03:24 62.1 °F 42.3 °F 29.8 in NE 2 mph 5 mph 48.3% 0 in
03:29 62.1 °F 41.9 °F 29.8 in NE 1.9 mph 3.6 mph 47.7% 0 in
03:34 62.1 °F 42.3 °F 29.8 in NE 1.8 mph 4 mph 48.2% 0 in
03:39 61.9 °F 43 °F 29.8 in NE 2.1 mph 5 mph 50% 0 in
03:44 61.9 °F 44.8 °F 29.8 in NE 2.4 mph 5 mph 53.3% 0 in
03:49 61.7 °F 42.4 °F 29.8 in Este 2.2 mph 4.6 mph 49.2% 0 in
03:54 61.5 °F 40.6 °F 29.8 in Este 2 mph 5 mph 46.3% 0 in
03:59 61.3 °F 39.9 °F 29.8 in Este 1.9 mph 3 mph 45.3% 0 in
04:04 61.3 °F 40.3 °F 29.8 in Este 1.8 mph 3 mph 46% 0 in
04:09 61.2 °F 40.6 °F 29.8 in Este 1.1 mph   46.6% 0 in
04:14 61.3 °F 41.9 °F 29.8 in Calm   2.3 mph 48.9% 0 in
04:19 61.3 °F 42.6 °F 29.8 in Calm   2.4 mph 50.3% 0 in
04:24 61.2 °F 42.4 °F 29.8 in Calm   2.3 mph 50.4% 0 in
04:29 60.8 °F 41.9 °F 29.8 in Calm   2 mph 50% 0 in
04:34 60.6 °F 41.5 °F 29.8 in Calm     49.5% 0 in
04:39 60.4 °F 42.8 °F 29.8 in Calm   2.4 mph 52.1% 0 in
04:44 60.4 °F 43.5 °F 29.8 in Calm   2.3 mph 53.5% 0 in
04:49 60.4 °F 44.2 °F 29.8 in Calm   2.3 mph 54.9% 0 in
04:54 60.6 °F 44.6 °F 29.8 in Calm   3.6 mph 55.7% 0 in
04:59 60.6 °F 45.9 °F 29.8 in Oeste 0.7 mph 4.6 mph 58% 0 in
05:04 60.6 °F 45.3 °F 29.8 in SO 1.8 mph 5.8 mph 56.9% 0 in
05:09 60.6 °F 44.6 °F 29.8 in OSO 2.2 mph 6 mph 55.4% 0 in
05:14 60.6 °F 44.4 °F 29.8 in Oeste 2.9 mph 5 mph 55% 0 in
05:19 60.6 °F 44.4 °F 29.8 in Oeste 2.3 mph 3 mph 54.9% 0 in
05:24 60.6 °F 44.1 °F 29.8 in OSO 1.4 mph 3.6 mph 54.2% 0 in
05:29 60.4 °F 44.1 °F 29.8 in SSE 1.4 mph 4.6 mph 54.5% 0 in
05:34 60.4 °F 44.2 °F 29.8 in SSE 1.4 mph 5 mph 55% 0 in
05:39 60.3 °F 44.4 °F 29.8 in SSE 1.6 mph 4 mph 55.5% 0 in
05:44 60.3 °F 44.4 °F 29.8 in SSE 1.8 mph 8.1 mph 55.8% 0 in
05:49 59.4 °F 43.3 °F 29.8 in SSE 2.7 mph 8.1 mph 55.2% 0 in
05:54 58.6 °F 43.2 °F 29.8 in SSO 4 mph 8.1 mph 56.2% 0 in
05:59 58.5 °F 43.3 °F 29.8 in SSO 4.3 mph 8 mph 57% 0 in
06:04 58.5 °F 43.7 °F 29.8 in SSO 4.7 mph 7.4 mph 57.8% 0 in
06:09 58.6 °F 43.3 °F 29.8 in SSO 4.9 mph 7 mph 57% 0 in
06:14 58.6 °F 43.3 °F 29.8 in SSO 5.2 mph 7 mph 56.9% 0 in
06:19 58.8 °F 43.3 °F 29.8 in SO 4.8 mph 7 mph 56.5% 0 in
06:24 58.8 °F 43.2 °F 29.8 in SO 4.3 mph 6 mph 56% 0 in
06:29 59 °F 43.3 °F 29.8 in Sur 3.9 mph 5.9 mph 56% 0 in
06:34 59 °F 42.8 °F 29.8 in SSE 3.1 mph 6 mph 55.2% 0 in
06:39 59 °F 42.8 °F 29.8 in SSE 3.3 mph 6.2 mph 55.1% 0 in
06:44 59 °F 43.3 °F 29.8 in SSE 3.6 mph 6 mph 56% 0 in
06:49 59 °F 43.3 °F 29.8 in SSE 3.6 mph 5.9 mph 56% 0 in
06:54 59 °F 43.3 °F 29.8 in SSE 3.6 mph 6 mph 56% 0 in
06:59 58.8 °F 43.2 °F 29.8 in SSE 3.1 mph 5.2 mph 56% 0 in
07:04 58.6 °F 43 °F 29.8 in SE 2.4 mph 5 mph 56% 0 in
07:09 58.6 °F 43.3 °F 29.8 in SE 2.2 mph 5 mph 56.8% 0 in
07:14 58.5 °F 43.2 °F 29.8 in SE 2 mph 3.5 mph 57% 0 in
07:19 58.3 °F 43.5 °F 29.8 in SE 1.9 mph 4 mph 57.9% 0 in
07:24 58.3 °F 43 °F 29.8 in SE 1.8 mph 5.2 mph 57.1% 0 in
07:29 57.9 °F 43.2 °F 29.8 in SE 2.2 mph 5 mph 57.8% 0 in
07:34 57.9 °F 43.2 °F 29.8 in SSE 2.9 mph 5 mph 58% 0 in
07:39 58.1 °F 43 °F 29.8 in SSE 3 mph 5 mph 57.4% 0 in
07:44 58.5 °F 43.2 °F 29.8 in SE 3.1 mph 5 mph 57% 0 in
07:49 58.8 °F 43.9 °F 29.9 in Este 2.6 mph 5 mph 57.7% 0 in
07:54 59.4 °F 44.6 °F 29.9 in NNE 1.8 mph 4.6 mph 58% 0 in
07:59 59.5 °F 44.8 °F 29.9 in North 1.6 mph 5 mph 58% 0 in
08:04 59.7 °F 45.3 °F 29.9 in NNO 1.4 mph 3.5 mph 59% 0 in
08:09 60.1 °F 45.7 °F 29.9 in NNO 1.6 mph 3 mph 59% 0 in
08:14 60.6 °F 46.2 °F 29.9 in NNO 1.8 mph 3 mph 58.9% 0 in
08:19 61.3 °F 46 °F 29.9 in NNO 1.1 mph 3.6 mph 57.1% 0 in
08:24 61.5 °F 45.3 °F 29.9 in Calm   4 mph 55.3% 0 in
08:29 61.9 °F 45.5 °F 29.9 in ESE 0.7 mph 4 mph 55.1% 0 in
08:34 62.2 °F 45.9 °F 29.9 in ESE 1.8 mph 3.6 mph 55% 0 in
08:39 62.4 °F 46 °F 29.9 in ESE 1.8 mph 4 mph 55% 0 in
08:44 62.8 °F 45.9 °F 29.9 in SE 1.8 mph 4.3 mph 54% 0 in
08:49 63 °F 45.9 °F 29.9 in Sur 1.9 mph 5 mph 53.5% 0 in
08:54 62.8 °F 45.9 °F 29.9 in Sur 2 mph 5 mph 53.8% 0 in
08:59 63 °F 46 °F 29.9 in SE 2.2 mph 5.2 mph 54% 0 in
09:04 63.1 °F 46 °F 29.9 in SSE 2.4 mph 5.9 mph 54% 0 in
09:09 63.1 °F 46.2 °F 29.9 in SSE 2.7 mph 6 mph 54% 0 in
09:14 63.5 °F 46.6 °F 29.9 in SSE 3.1 mph 5.2 mph 54% 0 in
09:19 63.9 °F 46.9 °F 29.9 in Sur 3 mph 6.2 mph 54% 0 in
09:24 64 °F 47.1 °F 29.9 in SSE 2.9 mph 6 mph 54% 0 in
09:29 64.4 °F 47.5 °F 29.9 in Sur 2.5 mph 5.9 mph 54.1% 0 in
09:34 64.9 °F 48 °F 29.9 in Sur 2 mph 6.2 mph 54% 0 in
09:39 64.9 °F 48.2 °F 29.9 in SSE 2.4 mph 6.9 mph 54.5% 0 in
09:44 65.1 °F 48.6 °F 29.9 in SE 3.1 mph 7 mph 55% 0 in
09:49 65.1 °F 48.7 °F 29.9 in SSE 3.5 mph 7.4 mph 55.7% 0 in
09:54 65.1 °F 49.1 °F 29.9 in SE 4.3 mph 7 mph 56% 0 in
09:59 65.7 °F 49.5 °F 29.9 in SSE 3.8 mph 7 mph 56% 0 in
10:04 66 °F 49.5 °F 29.9 in SSO 3.1 mph 5.2 mph 55.1% 0 in
10:09 66.2 °F 49.6 °F 29.9 in SO 3.1 mph 5.2 mph 55% 0 in
10:14 66.6 °F 49.8 °F 29.9 in Sur 3.1 mph 5 mph 55% 0 in
10:19 67.1 °F 50 °F 29.9 in Este 2.7 mph 5 mph 54.2% 0 in
10:24 68 °F 50.2 °F 29.9 in NNE 2 mph 5.8 mph 52.6% 0 in
10:29 68.7 °F 50 °F 29.9 in North 2 mph 6.2 mph 51.1% 0 in
10:34 68.9 °F 49.6 °F 29.9 in NNE 2 mph 6 mph 50.5% 0 in
10:39 68.7 °F 49.8 °F 29.9 in NE 2.6 mph 8.1 mph 50.8% 0 in
10:44 68.4 °F 49.5 °F 29.9 in NE 3.6 mph 8 mph 50.9% 0 in
10:49 68.2 °F 49.6 °F 29.9 in NE 3.6 mph 6 mph 51.6% 0 in
10:54 68.5 °F 49.8 °F 29.9 in ENE 3.6 mph 6 mph 51.1% 0 in
10:59 69.1 °F 50 °F 29.9 in ENE 3.3 mph 6.2 mph 50.5% 0 in
11:04 69.6 °F 49.8 °F 29.9 in NE 2.9 mph 8.1 mph 49.4% 0 in
11:09 69.6 °F 49.6 °F 29.9 in NE 3 mph 8 mph 49% 0 in
11:14 70 °F 49.6 °F 29.9 in NO 3.1 mph 5.9 mph 48.6% 0 in
11:19 69.8 °F 49.3 °F 29.9 in NNE 2.9 mph 6 mph 48% 0 in
11:24 69.8 °F 49.6 °F 29.9 in NNE 2.4 mph 6.2 mph 48.8% 0 in
11:29 70 °F 49.6 °F 29.9 in NE 3 mph 9.7 mph 48.5% 0 in
11:34 69.8 °F 49.6 °F 29.9 in NNE 4 mph 10.4 mph 48.8% 0 in
11:39 70.2 °F 49.5 °F 29.9 in NNE 4 mph 10 mph 47.8% 0 in
11:44 70.7 °F 49.5 °F 29.9 in NE 4 mph 7.4 mph 47.2% 0 in
11:49 71.1 °F 49.8 °F 29.9 in NE 4.1 mph 9.2 mph 47% 0 in
11:54 71.2 °F 49.5 °F 29.9 in NE 4.3 mph 10.4 mph 46.1% 0 in
11:59 71.6 °F 49.1 °F 29.9 in NE 4.5 mph 10 mph 44.9% 0 in
12:04 71.6 °F 48.2 °F 29.9 in NE 4.7 mph 10 mph 43.5% 0 in
12:09 72 °F 47.7 °F 29.9 in NNE 4.4 mph 8.5 mph 42.1% 0 in
12:14 72.3 °F 46.4 °F 29.9 in North 4 mph 9 mph 39.6% 0 in
12:19 72.3 °F 45.9 °F 29.9 in ENE 4.1 mph 9.7 mph 38.7% 0 in
12:24 72.9 °F 45.9 °F 29.9 in ENE 4.3 mph 10 mph 38.3% 0 in
12:29 73 °F 46.4 °F 29.9 in North 4.3 mph 8.5 mph 38.5% 0 in
12:34 73.4 °F 46.8 °F 29.9 in NE 4.3 mph 11.2 mph 38.8% 0 in
12:39 73.4 °F 46.9 °F 29.9 in NE 4.3 mph 12 mph 38.9% 0 in
12:44 73.2 °F 46.4 °F 29.9 in Este 4.3 mph 9.7 mph 38.3% 0 in
12:49 73.4 °F 46.8 °F 29.9 in NNE 4.5 mph 10 mph 38.9% 0 in
12:54 73.6 °F 45.5 °F 29.9 in NNO 4.7 mph 9 mph 36.7% 0 in
12:59 73.8 °F 45 °F 29.9 in North 4.7 mph 8 mph 35.8% 0 in
13:04 73.9 °F 45 °F 29.9 in NE 4.7 mph 10.4 mph 35.5% 0 in
13:09 73.9 °F 43.5 °F 29.9 in NE 5.3 mph 10 mph 33.8% 0 in
13:14 73.9 °F 43.7 °F 29.9 in NNE 6.2 mph 10 mph 34.1% 0 in
13:19 74.3 °F 43.7 °F 29.9 in North 5.3 mph 7 mph 33.5% 0 in
13:24 74.8 °F 42.6 °F 29.9 in NNE 4 mph 6 mph 31.4% 0 in
13:29 75.4 °F 43 °F 29.9 in NNE 3.6 mph 6 mph 31.3% 0 in
13:34 76.1 °F 44.1 °F 29.9 in ENE 2.9 mph 9.7 mph 32.1% 0 in
13:39 76.3 °F 43.9 °F 29.9 in ENE 3.2 mph 10 mph 31.6% 0 in
13:44 76.1 °F 44.1 °F 29.9 in NNE 3.6 mph 9.2 mph 32.1% 0 in
13:49 76.3 °F 44.1 °F 29.9 in NE 3.7 mph 9.2 mph 31.8% 0 in
13:54 76.5 °F 42.4 °F 29.8 in NNO 4 mph 10 mph 29.7% 0 in
13:59 76.8 °F 43 °F 29.8 in North 4.8 mph 15 mph 30% 0 in
14:04 77 °F 42.6 °F 29.8 in NNE 5.9 mph 15 mph 29.3% 0 in
14:09 77.2 °F 46.9 °F 29.8 in NO 5.9 mph 15.2 mph 34.8% 0 in
14:14 76.6 °F 51.4 °F 29.8 in NE 5.9 mph 15 mph 41.4% 0 in
14:19 75.9 °F 50.5 °F 29.8 in NE 6.3 mph 15 mph 41.1% 0 in
14:24 75.6 °F 50.5 °F 29.8 in NE 6.9 mph 15 mph 41.3% 0 in
14:29 75.6 °F 51.6 °F 29.8 in NE 7.6 mph 16.1 mph 43.3% 0 in
14:34 75.6 °F 52.7 °F 29.8 in NE 8.7 mph 19.2 mph 45% 0 in
14:39 75.7 °F 54.1 °F 29.8 in ENE 8.7 mph 20 mph 47.1% 0 in
14:44 75.2 °F 54.1 °F 29.8 in Este 8.7 mph 20 mph 48.1% 0 in
14:49 74.7 °F 54.3 °F 29.8 in ESE 9.1 mph 18.4 mph 49.4% 0 in
14:54 74.1 °F 53.4 °F 29.8 in ESE 9.7 mph 21.9 mph 48.6% 0 in
14:59 73.9 °F 52.7 °F 29.8 in ESE 10.1 mph 22 mph 47.6% 0 in
15:04 74.5 °F 52.7 °F 29.8 in ENE 10.7 mph 15 mph 46.8% 0 in
15:09 74.8 °F 52.9 °F 29.8 in NE 9.5 mph 17.8 mph 46.1% 0 in
15:14 74.8 °F 52.2 °F 29.8 in NE 7.6 mph 18.4 mph 45.1% 0 in
15:19 74.8 °F 52 °F 29.8 in ENE 8.8 mph 18 mph 44.7% 0 in
15:24 75.4 °F 53.2 °F 29.8 in Este 10.7 mph 16 mph 46% 0 in
15:29 75.2 °F 52.9 °F 29.8 in ESE 9.9 mph 19.6 mph 45.9% 0 in
15:34 75 °F 52.9 °F 29.8 in ESE 8.5 mph 20 mph 46% 0 in
15:39 74.7 °F 52.7 °F 29.8 in ESE 9.1 mph 16.1 mph 46.1% 0 in
15:44 74.8 °F 52.5 °F 29.8 in ESE 10.2 mph 16 mph 45.8% 0 in
15:49 74.7 °F 52.5 °F 29.8 in ESE 10 mph 15 mph 46% 0 in
15:54 74.5 °F 51.8 °F 29.8 in ESE 9.7 mph 15 mph 45.1% 0 in
15:59 74.8 °F 52.2 °F 29.8 in ESE 8.8 mph 14 mph 45% 0 in
16:04 75.4 °F 51.8 °F 29.8 in ESE 7.6 mph 15.2 mph 43.9% 0 in
16:09 74.8 °F 51.8 °F 29.8 in ESE 8 mph 15 mph 44.3% 0 in
16:14 75 °F 52.2 °F 29.8 in ESE 8.7 mph 13 mph 44.9% 0 in
16:19 74.8 °F 51.6 °F 29.8 in ESE 8.3 mph 13.5 mph 44.2% 0 in
16:24 74.8 °F 52 °F 29.8 in ESE 7.6 mph 15 mph 44.9% 0 in
16:29 74.7 °F 51.8 °F 29.8 in ESE 7.6 mph 15 mph 45% 0 in
16:34 74.7 °F 51.8 °F 29.8 in ESE 7.6 mph 15 mph 44.9% 0 in
16:39 74.7 °F 52 °F 29.8 in ESE 8 mph 15 mph 45.2% 0 in
16:44 74.3 °F 53.2 °F 29.8 in ESE 8.5 mph 15 mph 48% 0 in
16:49 73.9 °F 53.4 °F 29.8 in Este 8.3 mph 15 mph 48.7% 0 in
16:54 73.9 °F 54 °F 29.8 in ESE 8.1 mph 11.5 mph 49.9% 0 in
16:59 73.9 °F 54.1 °F 29.8 in ESE 7.3 mph 12 mph 49.8% 0 in
17:04 73.9 °F 54 °F 29.8 in ESE 6.2 mph 12.7 mph 49.6% 0 in
17:09 73.8 °F 54.3 °F 29.8 in ESE 6.3 mph 13 mph 50.7% 0 in
17:14 73.8 °F 54.5 °F 29.8 in ESE 6.4 mph 10 mph 51.1% 0 in
17:19 73.8 °F 54.5 °F 29.8 in Este 6 mph 10.4 mph 50.9% 0 in
17:24 73.6 °F 53.8 °F 29.8 in Este 5.4 mph 9 mph 50.1% 0 in
17:29 73.4 °F 54 °F 29.8 in ENE 5.3 mph 9.2 mph 50.8% 0 in
17:34 73.2 °F 54.7 °F 29.8 in Este 5.2 mph 9.2 mph 52.3% 0 in
17:39 73 °F 55 °F 29.8 in Este 5.2 mph 9 mph 53.5% 0 in
17:44 72.9 °F 55.8 °F 29.8 in ENE 5.2 mph 12.7 mph 55.2% 0 in
17:49 72.3 °F 55.9 °F 29.8 in NE 5.7 mph 13 mph 56.5% 0 in
17:54 72 °F 56.1 °F 29.8 in NE 6.4 mph 13 mph 57.4% 0 in
17:59 71.6 °F 56.3 °F 29.8 in NE 6.8 mph 13.5 mph 58.8% 0 in
18:04 71.2 °F 56.5 °F 29.8 in NE 7.4 mph 15.2 mph 59.6% 0 in
18:09 71.1 °F 56.5 °F 29.8 in NE 7.8 mph 15 mph 60% 0 in
18:14 71.1 °F 56.8 °F 29.8 in NE 8.5 mph 15 mph 60.8% 0 in
18:19 70.9 °F 57.2 °F 29.8 in NE 8.1 mph 15 mph 61.9% 0 in
18:24 70.7 °F 57.4 °F 29.8 in NE 7.4 mph 16.1 mph 62.7% 0 in
18:29 70.2 °F 57.4 °F 29.8 in NE 8.4 mph 18.5 mph 63.9% 0 in
18:34 70.2 °F 57.4 °F 29.8 in NE 10 mph 19 mph 64% 0 in
18:39 70 °F 57.6 °F 29.8 in NE 9.7 mph 14 mph 64.6% 0 in
18:44 69.8 °F 57.6 °F 29.8 in NE 9.2 mph 14 mph 65% 0 in
18:49 69.6 °F 57.2 °F 29.8 in NE 9 mph 14 mph 64.5% 0 in
18:54 69.6 °F 57.4 °F 29.8 in NE 8.7 mph 14 mph 65% 0 in
18:59 69.4 °F 57.2 °F 29.8 in NE 8.4 mph 15.2 mph 65% 0 in
19:04 69.4 °F 57.2 °F 29.8 in NE 8.1 mph 15 mph 65.3% 0 in
19:09 69.3 °F 57.4 °F 29.8 in NE 7.9 mph 13 mph 66% 0 in
19:14 69.3 °F 57.4 °F 29.8 in NE 7.6 mph 13.8 mph 66% 0 in
19:19 69.3 °F 57.7 °F 29.8 in NE 8 mph 16.1 mph 66.9% 0 in
19:24 69.1 °F 57.9 °F 29.8 in NE 8.5 mph 17.5 mph 67.7% 0 in
19:29 68.9 °F 57.7 °F 29.8 in NE 9.1 mph 17.5 mph 68% 0 in
19:34 68.7 °F 57.9 °F 29.8 in NE 10 mph 18.4 mph 68.7% 0 in
19:39 68.7 °F 58.1 °F 29.8 in NE 9.4 mph 18 mph 69% 0 in
19:44 68.5 °F 58.3 °F 29.8 in NE 8.5 mph 15 mph 69.5% 0 in
19:49 68.5 °F 58.5 °F 29.8 in NE 8.5 mph 14 mph 70% 0 in
19:54 68.5 °F 58.3 °F 29.8 in NE 8.5 mph 13 mph 70% 0 in
19:59 68.4 °F 58.6 °F 29.8 in NE 7.8 mph 12.7 mph 71% 0 in
20:04 68.4 °F 58.5 °F 29.8 in NE 6.9 mph 13 mph 71% 0 in
20:09 68.2 °F 58.5 °F 29.8 in NE 7.1 mph 12 mph 71.3% 0 in
20:14 68.2 °F 58.8 °F 29.8 in NE 7.4 mph 13 mph 72% 0 in
20:19 68.2 °F 58.8 °F 29.8 in NE 7 mph 13 mph 72% 0 in
20:24 68.2 °F 58.6 °F 29.8 in NE 6.4 mph 11.5 mph 72% 0 in
20:29 67.8 °F 58.6 °F 29.8 in NE 6.4 mph 12 mph 72.4% 0 in
20:34 67.8 °F 58.8 °F 29.8 in NE 6.4 mph 12.7 mph 73% 0 in
20:39 67.8 °F 58.8 °F 29.8 in NE 6.6 mph 13 mph 73% 0 in
20:44 67.6 °F 59 °F 29.8 in NE 6.9 mph 15 mph 73.7% 0 in
20:49 67.5 °F 59 °F 29.8 in NE 7.2 mph 15 mph 74.1% 0 in
20:54 67.5 °F 59.4 °F 29.8 in NE 7.6 mph 13 mph 75% 0 in
20:59 67.5 °F 59.2 °F 29.8 in NE 7.5 mph 13.8 mph 75% 0 in
21:04 67.3 °F 59.2 °F 29.9 in NE 7.4 mph 14 mph 75% 0 in
21:09 67.1 °F 59.2 °F 29.9 in NE 7.6 mph 14 mph 75.6% 0 in
21:14 66.9 °F 59.2 °F 29.9 in NE 8.1 mph 12 mph 76% 0 in
21:19 66.9 °F 59.2 °F 29.9 in NE 8.1 mph 14 mph 76% 0 in
21:24 66.7 °F 59 °F 29.9 in NE 8.1 mph 14 mph 76% 0 in
21:29 66.7 °F 58.8 °F 29.9 in NE 7.6 mph 13 mph 76% 0 in
21:34 66.6 °F 58.8 °F 29.9 in ENE 6.9 mph 12 mph 76% 0 in
21:39 66.6 °F 58.8 °F 29.9 in NE 6.7 mph 11 mph 76% 0 in
21:44 66.6 °F 58.8 °F 29.9 in NE 6.4 mph 10 mph 76% 0 in
21:49 66.4 °F 58.8 °F 29.9 in NE 6 mph 9.2 mph 76.5% 0 in
21:54 66.2 °F 58.8 °F 29.9 in NE 5.4 mph 9.7 mph 77% 0 in
21:59 66 °F 59 °F 29.9 in NE 5.7 mph 10 mph 77.8% 0 in
22:04 65.8 °F 58.8 °F 29.9 in NE 6.2 mph 10 mph 78% 0 in
22:09 65.8 °F 59 °F 29.9 in NE 5.9 mph 9 mph 78.6% 0 in
22:14 65.7 °F 59 °F 29.9 in NE 5.4 mph 9.2 mph 79% 0 in
22:19 65.7 °F 59 °F 29.9 in NE 5.6 mph 9.7 mph 79% 0 in
22:24 65.5 °F 58.8 °F 29.9 in NE 5.9 mph 10 mph 79% 0 in
22:29 65.5 °F 59 °F 29.9 in NE 5.5 mph 7 mph 79.9% 0 in
22:34 65.5 °F 59.2 °F 29.9 in NE 4.7 mph 8.1 mph 80% 0 in
22:39 65.5 °F 59 °F 29.9 in NE 4.5 mph 8 mph 80% 0 in
22:44 65.3 °F 59 °F 29.9 in NE 4.3 mph 8.5 mph 80% 0 in
22:49 65.1 °F 59 °F 29.9 in NNE 4.7 mph 10.2 mph 80.3% 0 in
22:54 64.9 °F 59 °F 29.9 in NE 5.4 mph 10.4 mph 81% 0 in
22:59 64.9 °F 59 °F 29.9 in NE 5.4 mph 9.2 mph 81% 0 in
23:04 64.9 °F 59.2 °F 29.9 in NE 5.4 mph 9.7 mph 81.8% 0 in
23:09 64.9 °F 59.4 °F 29.9 in NE 5.6 mph 10.7 mph 82% 0 in
23:14 64.8 °F 59.2 °F 29.9 in NE 5.9 mph 11 mph 82% 0 in
23:19 64.8 °F 59.2 °F 29.9 in NE 6 mph 10 mph 82% 0 in
23:24 64.8 °F 59.2 °F 29.9 in NE 6.2 mph 13 mph 82.4% 0 in
23:29 64.8 °F 59.5 °F 29.9 in NE 6.5 mph 13 mph 83% 0 in
23:34 64.8 °F 59.4 °F 29.9 in NE 6.9 mph 10 mph 83% 0 in
23:39 64.6 °F 59.4 °F 29.9 in NE 6.5 mph 9 mph 83% 0 in
23:44 64.6 °F 59.4 °F 29.9 in NE 5.9 mph 10.4 mph 83% 0 in
23:49 64.8 °F 59.4 °F 29.9 in NE 5.7 mph 10 mph 83% 0 in
23:54 64.8 °F 59.2 °F 29.9 in NE 5.4 mph 9.2 mph 82.1% 0 in
23:59 64.8 °F 59.2 °F 29.9 in NE 5.4 mph 9 mph 82.4% 0 in
Murcia-Puente Tocinos, España
Compliments of Weather Underground - 3 mb

La estación de MeteoMurcia.com, publica sus datos en los siguientes proyectos:

Weather Underground PWS IMURCIAP2 Meteoclimatic www.awekas.at

W3Counter
Web Analytics